sensor_id;sensor_type;location;lat;lon;timestamp;pressure;altitude;pressure_sealevel;temperature;humidity
61136;BME280;47021;51.340;12.432;2023-11-21T00:01:45;99455.13;;;12.65;65.25
61136;BME280;47021;51.340;12.432;2023-11-21T00:06:54;99460.00;;;12.60;65.23
61136;BME280;47021;51.340;12.432;2023-11-21T00:09:32;99465.91;;;12.62;65.07
61136;BME280;47021;51.340;12.432;2023-11-21T00:14:41;99463.47;;;12.68;64.92
61136;BME280;47021;51.340;12.432;2023-11-21T00:17:08;99467.88;;;12.68;64.67
61136;BME280;47021;51.340;12.432;2023-11-21T00:19:34;99471.03;;;12.71;64.77
61136;BME280;47021;51.340;12.432;2023-11-21T00:22:00;99472.66;;;12.72;64.38
61136;BME280;47021;51.340;12.432;2023-11-21T00:24:31;99473.78;;;12.70;64.49
61136;BME280;47021;51.340;12.432;2023-11-21T00:26:57;99477.16;;;12.54;64.42
61136;BME280;47021;51.340;12.432;2023-11-21T00:29:35;99480.28;;;12.58;64.80
61136;BME280;47021;51.340;12.432;2023-11-21T00:32:01;99472.06;;;12.53;64.53
61136;BME280;47021;51.340;12.432;2023-11-21T00:34:27;99478.59;;;12.49;64.71
61136;BME280;47021;51.340;12.432;2023-11-21T00:36:53;99483.75;;;12.33;65.34
61136;BME280;47021;51.340;12.432;2023-11-21T00:39:19;99486.38;;;12.33;65.23
61136;BME280;47021;51.340;12.432;2023-11-21T00:44:37;99494.22;;;12.15;65.56
61136;BME280;47021;51.340;12.432;2023-11-21T00:47:02;99491.13;;;12.37;65.10
61136;BME280;47021;51.340;12.432;2023-11-21T00:49:41;99488.00;;;12.34;64.91
61136;BME280;47021;51.340;12.432;2023-11-21T00:52:07;99485.22;;;12.35;64.76
61136;BME280;47021;51.340;12.432;2023-11-21T00:54:38;99479.06;;;12.19;65.12
61136;BME280;47021;51.340;12.432;2023-11-21T00:57:04;99481.50;;;12.20;65.27
61136;BME280;47021;51.340;12.432;2023-11-21T00:59:37;99490.88;;;12.23;64.81
61136;BME280;47021;51.340;12.432;2023-11-21T01:03:32;99501.59;;;11.59;67.06
61136;BME280;47021;51.340;12.432;2023-11-21T01:05:57;99508.63;;;11.93;65.91
61136;BME280;47021;51.340;12.432;2023-11-21T01:08:23;99495.78;;;12.00;65.67
61136;BME280;47021;51.340;12.432;2023-11-21T01:10:51;99501.88;;;12.09;65.48
61136;BME280;47021;51.340;12.432;2023-11-21T01:13:18;99498.22;;;12.01;65.49
61136;BME280;47021;51.340;12.432;2023-11-21T01:15:43;99503.78;;;11.98;65.60
61136;BME280;47021;51.340;12.432;2023-11-21T01:18:10;99504.81;;;11.88;65.81
61136;BME280;47021;51.340;12.432;2023-11-21T01:20:37;99506.22;;;12.00;65.69
61136;BME280;47021;51.340;12.432;2023-11-21T01:23:18;99502.41;;;11.94;65.96
61136;BME280;47021;51.340;12.432;2023-11-21T01:25:45;99506.00;;;12.11;65.67
61136;BME280;47021;51.340;12.432;2023-11-21T01:28:10;99513.34;;;12.08;65.90
61136;BME280;47021;51.340;12.432;2023-11-21T01:30:51;99512.41;;;12.17;65.70
61136;BME280;47021;51.340;12.432;2023-11-21T01:33:17;99510.97;;;12.22;65.66
61136;BME280;47021;51.340;12.432;2023-11-21T01:35:42;99513.97;;;12.27;65.77
61136;BME280;47021;51.340;12.432;2023-11-21T01:38:26;99510.16;;;12.47;65.14
61136;BME280;47021;51.340;12.432;2023-11-21T01:40:57;99517.78;;;12.33;65.32
61136;BME280;47021;51.340;12.432;2023-11-21T01:43:31;99516.53;;;12.19;65.95
61136;BME280;47021;51.340;12.432;2023-11-21T01:45:56;99515.50;;;12.38;65.58
61136;BME280;47021;51.340;12.432;2023-11-21T01:48:37;99510.50;;;12.44;65.13
61136;BME280;47021;51.340;12.432;2023-11-21T01:51:03;99516.78;;;12.34;65.68
61136;BME280;47021;51.340;12.432;2023-11-21T01:53:36;99521.47;;;12.48;65.31
61136;BME280;47021;51.340;12.432;2023-11-21T01:56:03;99518.84;;;12.73;64.15
61136;BME280;47021;51.340;12.432;2023-11-21T01:58:30;99522.53;;;12.63;64.55
61136;BME280;47021;51.340;12.432;2023-11-21T02:01:02;99521.09;;;12.68;64.38
61136;BME280;47021;51.340;12.432;2023-11-21T02:03:27;99527.06;;;12.53;65.04
61136;BME280;47021;51.340;12.432;2023-11-21T02:05:53;99522.50;;;12.55;64.90
61136;BME280;47021;51.340;12.432;2023-11-21T02:08:25;99533.78;;;12.55;64.75
61136;BME280;47021;51.340;12.432;2023-11-21T02:11:02;99533.94;;;12.54;64.88
61136;BME280;47021;51.340;12.432;2023-11-21T02:13:29;99537.13;;;12.65;64.63
61136;BME280;47021;51.340;12.432;2023-11-21T02:15:56;99542.53;;;12.98;63.37
61136;BME280;47021;51.340;12.432;2023-11-21T02:18:22;99548.41;;;12.92;63.48
61136;BME280;47021;51.340;12.432;2023-11-21T02:20:47;99531.63;;;12.51;64.82
61136;BME280;47021;51.340;12.432;2023-11-21T02:23:12;99541.38;;;12.41;64.46
61136;BME280;47021;51.340;12.432;2023-11-21T02:25:50;99547.28;;;11.82;66.26
61136;BME280;47021;51.340;12.432;2023-11-21T02:28:15;99537.19;;;12.48;64.64
61136;BME280;47021;51.340;12.432;2023-11-21T02:30:42;99533.13;;;12.53;64.23
61136;BME280;47021;51.340;12.432;2023-11-21T02:33:07;99543.06;;;12.24;65.06
61136;BME280;47021;51.340;12.432;2023-11-21T02:35:33;99543.91;;;12.07;66.01
61136;BME280;47021;51.340;12.432;2023-11-21T02:37:59;99549.16;;;11.89;66.59
61136;BME280;47021;51.340;12.432;2023-11-21T02:40:31;99545.63;;;12.16;66.03
61136;BME280;47021;51.340;12.432;2023-11-21T02:43:03;99539.25;;;12.62;64.59
61136;BME280;47021;51.340;12.432;2023-11-21T02:45:35;99535.88;;;12.26;65.42
61136;BME280;47021;51.340;12.432;2023-11-21T02:48:13;99541.78;;;12.11;65.68
61136;BME280;47021;51.340;12.432;2023-11-21T02:50:44;99541.84;;;11.66;67.55
61136;BME280;47021;51.340;12.432;2023-11-21T02:53:24;99536.59;;;11.93;66.71
61136;BME280;47021;51.340;12.432;2023-11-21T02:58:35;99536.94;;;11.80;66.64
61136;BME280;47021;51.340;12.432;2023-11-21T03:01:06;99543.91;;;12.07;65.99
61136;BME280;47021;51.340;12.432;2023-11-21T03:03:31;99536.03;;;12.25;64.56
61136;BME280;47021;51.340;12.432;2023-11-21T03:05:56;99536.47;;;12.20;65.14
61136;BME280;47021;51.340;12.432;2023-11-21T03:08:23;99537.63;;;12.00;65.78
61136;BME280;47021;51.340;12.432;2023-11-21T03:10:48;99543.00;;;11.81;66.53
61136;BME280;47021;51.340;12.432;2023-11-21T03:13:13;99547.44;;;11.98;65.67
61136;BME280;47021;51.340;12.432;2023-11-21T03:15:39;99538.41;;;11.65;66.71
61136;BME280;47021;51.340;12.432;2023-11-21T03:18:06;99539.63;;;12.24;64.72
61136;BME280;47021;51.340;12.432;2023-11-21T03:20:34;99544.72;;;12.25;64.93
61136;BME280;47021;51.340;12.432;2023-11-21T03:23:01;99534.66;;;12.38;64.25
61136;BME280;47021;51.340;12.432;2023-11-21T03:25:26;99533.91;;;12.46;64.14
61136;BME280;47021;51.340;12.432;2023-11-21T03:28:06;99534.28;;;12.33;64.36
61136;BME280;47021;51.340;12.432;2023-11-21T03:30:32;99537.63;;;12.43;63.92
61136;BME280;47021;51.340;12.432;2023-11-21T03:33:03;99545.59;;;12.34;63.99
61136;BME280;47021;51.340;12.432;2023-11-21T03:35:34;99539.38;;;12.35;64.16
61136;BME280;47021;51.340;12.432;2023-11-21T03:38:01;99551.75;;;12.07;65.01
61136;BME280;47021;51.340;12.432;2023-11-21T03:40:40;99554.59;;;12.14;65.08
61136;BME280;47021;51.340;12.432;2023-11-21T03:43:13;99556.84;;;12.09;65.17
61136;BME280;47021;51.340;12.432;2023-11-21T03:45:39;99552.81;;;11.52;66.46
61136;BME280;47021;51.340;12.432;2023-11-21T03:48:13;99565.16;;;11.69;66.60
61136;BME280;47021;51.340;12.432;2023-11-21T03:50:38;99562.81;;;11.83;66.28
61136;BME280;47021;51.340;12.432;2023-11-21T03:55:47;99562.66;;;12.20;65.25
61136;BME280;47021;51.340;12.432;2023-11-21T03:58:12;99558.94;;;12.05;65.05
61136;BME280;47021;51.340;12.432;2023-11-21T04:00:51;99565.28;;;12.02;65.43
61136;BME280;47021;51.340;12.432;2023-11-21T04:03:17;99567.34;;;12.34;64.98
61136;BME280;47021;51.340;12.432;2023-11-21T04:05:42;99564.00;;;12.07;65.36
61136;BME280;47021;51.340;12.432;2023-11-21T04:08:14;99564.41;;;11.94;65.63
61136;BME280;47021;51.340;12.432;2023-11-21T04:10:41;99572.09;;;12.13;65.73
61136;BME280;47021;51.340;12.432;2023-11-21T04:13:08;99570.53;;;12.02;65.36
61136;BME280;47021;51.340;12.432;2023-11-21T04:15:35;99572.75;;;11.80;65.95
61136;BME280;47021;51.340;12.432;2023-11-21T04:18:08;99577.63;;;11.92;65.61
61136;BME280;47021;51.340;12.432;2023-11-21T04:23:10;99573.16;;;12.02;65.15
61136;BME280;47021;51.340;12.432;2023-11-21T04:25:42;99567.19;;;12.53;63.90
61136;BME280;47021;51.340;12.432;2023-11-21T04:28:21;99580.19;;;12.45;64.07
61136;BME280;47021;51.340;12.432;2023-11-21T04:30:47;99584.59;;;12.45;64.05
61136;BME280;47021;51.340;12.432;2023-11-21T04:33:12;99579.56;;;12.51;63.96
61136;BME280;47021;51.340;12.432;2023-11-21T04:35:37;99586.63;;;12.76;63.31
61136;BME280;47021;51.340;12.432;2023-11-21T04:38:04;99589.25;;;12.51;63.98
61136;BME280;47021;51.340;12.432;2023-11-21T04:40:32;99590.84;;;12.44;64.44
61136;BME280;47021;51.340;12.432;2023-11-21T04:42:58;99594.91;;;12.90;63.16
61136;BME280;47021;51.340;12.432;2023-11-21T04:45:31;99600.75;;;12.58;63.51
61136;BME280;47021;51.340;12.432;2023-11-21T04:47:56;99598.94;;;11.80;66.16
61136;BME280;47021;51.340;12.432;2023-11-21T04:50:27;99609.00;;;11.75;66.38
61136;BME280;47021;51.340;12.432;2023-11-21T04:52:53;99599.28;;;11.58;67.22
61136;BME280;47021;51.340;12.432;2023-11-21T04:55:24;99602.72;;;11.85;66.47
61136;BME280;47021;51.340;12.432;2023-11-21T04:57:50;99604.03;;;11.45;67.37
61136;BME280;47021;51.340;12.432;2023-11-21T05:00:30;99609.81;;;11.48;66.95
61136;BME280;47021;51.340;12.432;2023-11-21T05:02:55;99601.22;;;12.36;65.08
61136;BME280;47021;51.340;12.432;2023-11-21T05:05:26;99609.00;;;11.75;66.31
61136;BME280;47021;51.340;12.432;2023-11-21T05:07:58;99611.91;;;11.62;67.04
61136;BME280;47021;51.340;12.432;2023-11-21T05:10:23;99609.28;;;11.72;66.35
61136;BME280;47021;51.340;12.432;2023-11-21T05:12:55;99619.06;;;11.70;66.81
61136;BME280;47021;51.340;12.432;2023-11-21T05:15:21;99617.00;;;11.91;66.17
61136;BME280;47021;51.340;12.432;2023-11-21T05:17:53;99614.13;;;12.12;65.55
61136;BME280;47021;51.340;12.432;2023-11-21T05:20:19;99629.94;;;11.65;66.86
61136;BME280;47021;51.340;12.432;2023-11-21T05:22:52;99634.00;;;12.22;65.58
61136;BME280;47021;51.340;12.432;2023-11-21T05:25:17;99630.25;;;12.07;65.34
61136;BME280;47021;51.340;12.432;2023-11-21T05:28:01;99639.97;;;11.97;65.67
61136;BME280;47021;51.340;12.432;2023-11-21T05:30:33;99637.50;;;11.78;66.18
61136;BME280;47021;51.340;12.432;2023-11-21T05:33:09;99633.72;;;11.53;67.73
61136;BME280;47021;51.340;12.432;2023-11-21T05:35:34;99634.94;;;12.03;66.44
61136;BME280;47021;51.340;12.432;2023-11-21T05:38:00;99627.34;;;12.28;65.76
61136;BME280;47021;51.340;12.432;2023-11-21T05:40:32;99635.50;;;12.25;65.45
61136;BME280;47021;51.340;12.432;2023-11-21T05:42:57;99640.72;;;12.42;65.36
61136;BME280;47021;51.340;12.432;2023-11-21T05:45:24;99647.91;;;12.23;65.84
61136;BME280;47021;51.340;12.432;2023-11-21T05:47:49;99645.97;;;12.07;66.88
61136;BME280;47021;51.340;12.432;2023-11-21T05:50:23;99639.44;;;12.64;65.16
61136;BME280;47021;51.340;12.432;2023-11-21T05:52:48;99636.66;;;12.65;64.84
61136;BME280;47021;51.340;12.432;2023-11-21T05:55:22;99637.59;;;12.21;65.33
61136;BME280;47021;51.340;12.432;2023-11-21T06:00:24;99644.31;;;11.52;68.17
61136;BME280;47021;51.340;12.432;2023-11-21T06:02:50;99651.25;;;12.15;66.54
61136;BME280;47021;51.340;12.432;2023-11-21T06:05:17;99650.66;;;11.49;68.41
61136;BME280;47021;51.340;12.432;2023-11-21T06:07:50;99651.59;;;11.85;68.03
61136;BME280;47021;51.340;12.432;2023-11-21T06:10:23;99653.09;;;11.60;68.52
61136;BME280;47021;51.340;12.432;2023-11-21T06:12:48;99652.66;;;11.92;67.67
61136;BME280;47021;51.340;12.432;2023-11-21T06:15:13;99667.41;;;11.93;67.02
61136;BME280;47021;51.340;12.432;2023-11-21T06:17:39;99662.44;;;11.63;68.54
61136;BME280;47021;51.340;12.432;2023-11-21T06:20:19;99663.22;;;11.82;68.01
61136;BME280;47021;51.340;12.432;2023-11-21T06:22:53;99672.13;;;12.07;67.77
61136;BME280;47021;51.340;12.432;2023-11-21T06:25:19;99672.72;;;11.74;68.82
61136;BME280;47021;51.340;12.432;2023-11-21T06:27:45;99672.38;;;11.59;69.53
61136;BME280;47021;51.340;12.432;2023-11-21T06:30:11;99672.38;;;11.22;70.54
61136;BME280;47021;51.340;12.432;2023-11-21T06:32:43;99682.97;;;11.58;70.29
61136;BME280;47021;51.340;12.432;2023-11-21T06:35:15;99690.34;;;11.72;69.66
61136;BME280;47021;51.340;12.432;2023-11-21T06:37:48;99687.06;;;11.70;70.28
61136;BME280;47021;51.340;12.432;2023-11-21T06:40:14;99697.53;;;11.23;71.93
61136;BME280;47021;51.340;12.432;2023-11-21T06:42:39;99697.47;;;11.43;71.70
61136;BME280;47021;51.340;12.432;2023-11-21T06:45:12;99694.03;;;11.42;71.46
61136;BME280;47021;51.340;12.432;2023-11-21T06:50:07;99691.78;;;11.57;71.01
61136;BME280;47021;51.340;12.432;2023-11-21T06:52:51;99698.28;;;11.06;73.18
61136;BME280;47021;51.340;12.432;2023-11-21T06:55:24;99705.03;;;10.80;74.51
61136;BME280;47021;51.340;12.432;2023-11-21T06:57:50;99694.91;;;11.23;72.40
61136;BME280;47021;51.340;12.432;2023-11-21T07:00:17;99699.53;;;11.02;74.02
61136;BME280;47021;51.340;12.432;2023-11-21T07:02:43;99702.41;;;10.99;73.30
61136;BME280;47021;51.340;12.432;2023-11-21T07:05:10;99710.75;;;11.12;73.14
61136;BME280;47021;51.340;12.432;2023-11-21T07:10:20;99716.00;;;11.12;72.90
61136;BME280;47021;51.340;12.432;2023-11-21T07:12:45;99718.44;;;11.14;73.36
61136;BME280;47021;51.340;12.432;2023-11-21T07:15:22;99714.50;;;11.56;72.12
61136;BME280;47021;51.340;12.432;2023-11-21T07:17:52;99720.84;;;11.44;72.47
61136;BME280;47021;51.340;12.432;2023-11-21T07:20:17;99734.50;;;11.84;71.26
61136;BME280;47021;51.340;12.432;2023-11-21T07:22:50;99727.78;;;11.35;71.92
61136;BME280;47021;51.340;12.432;2023-11-21T07:25:15;99732.28;;;11.53;72.63
61136;BME280;47021;51.340;12.432;2023-11-21T07:27:53;99740.25;;;11.88;71.50
61136;BME280;47021;51.340;12.432;2023-11-21T07:30:27;99735.91;;;11.79;71.19
61136;BME280;47021;51.340;12.432;2023-11-21T07:32:53;99749.97;;;10.93;74.53
61136;BME280;47021;51.340;12.432;2023-11-21T07:38:10;99747.50;;;11.01;75.28
61136;BME280;47021;51.340;12.432;2023-11-21T07:40:35;99746.66;;;11.20;74.53
61136;BME280;47021;51.340;12.432;2023-11-21T07:43:10;99744.75;;;11.59;73.41
61136;BME280;47021;51.340;12.432;2023-11-21T07:45:35;99747.75;;;11.17;74.40
61136;BME280;47021;51.340;12.432;2023-11-21T07:48:00;99747.22;;;11.04;74.90
61136;BME280;47021;51.340;12.432;2023-11-21T07:50:26;99753.72;;;11.47;74.43
61136;BME280;47021;51.340;12.432;2023-11-21T07:52:52;99764.28;;;10.70;77.41
61136;BME280;47021;51.340;12.432;2023-11-21T07:55:30;99762.09;;;10.56;77.08
61136;BME280;47021;51.340;12.432;2023-11-21T07:57:55;99762.22;;;10.64;77.72
61136;BME280;47021;51.340;12.432;2023-11-21T08:00:26;99767.03;;;10.97;76.19
61136;BME280;47021;51.340;12.432;2023-11-21T08:02:54;99773.63;;;11.20;75.30
61136;BME280;47021;51.340;12.432;2023-11-21T08:05:19;99775.97;;;10.85;75.82
61136;BME280;47021;51.340;12.432;2023-11-21T08:07:52;99781.97;;;10.47;76.66
61136;BME280;47021;51.340;12.432;2023-11-21T08:10:18;99787.53;;;10.14;78.61
61136;BME280;47021;51.340;12.432;2023-11-21T08:12:57;99789.97;;;10.55;77.39
61136;BME280;47021;51.340;12.432;2023-11-21T08:15:24;99796.56;;;10.69;76.46
61136;BME280;47021;51.340;12.432;2023-11-21T08:17:58;99794.38;;;10.93;75.96
61136;BME280;47021;51.340;12.432;2023-11-21T08:20:23;99803.66;;;10.38;76.51
61136;BME280;47021;51.340;12.432;2023-11-21T08:22:48;99809.25;;;10.15;78.08
61136;BME280;47021;51.340;12.432;2023-11-21T08:25:13;99806.34;;;10.18;77.84
61136;BME280;47021;51.340;12.432;2023-11-21T08:27:46;99812.75;;;10.44;76.75
61136;BME280;47021;51.340;12.432;2023-11-21T08:30:26;99812.38;;;10.68;76.50
61136;BME280;47021;51.340;12.432;2023-11-21T08:32:52;99817.09;;;10.24;77.33
61136;BME280;47021;51.340;12.432;2023-11-21T08:35:20;99821.75;;;10.21;76.22
61136;BME280;47021;51.340;12.432;2023-11-21T08:43:31;99829.59;;;11.08;74.19
61136;BME280;47021;51.340;12.432;2023-11-21T08:46:02;99829.72;;;10.78;75.06
61136;BME280;47021;51.340;12.432;2023-11-21T08:48:27;99828.63;;;10.81;74.07
61136;BME280;47021;51.340;12.432;2023-11-21T08:50:55;99832.88;;;10.91;74.09
61136;BME280;47021;51.340;12.432;2023-11-21T08:56:03;99846.94;;;10.41;75.22
61136;BME280;47021;51.340;12.432;2023-11-21T08:58:29;99848.34;;;10.54;74.75
61136;BME280;47021;51.340;12.432;2023-11-21T09:01:01;99860.53;;;10.35;74.75
61136;BME280;47021;51.340;12.432;2023-11-21T09:03:27;99856.38;;;10.32;73.97
61136;BME280;47021;51.340;12.432;2023-11-21T09:05:56;99855.69;;;10.30;74.41
61136;BME280;47021;51.340;12.432;2023-11-21T09:08:23;99857.84;;;10.16;74.76
61136;BME280;47021;51.340;12.432;2023-11-21T09:10:49;99865.63;;;10.46;74.20
61136;BME280;47021;51.340;12.432;2023-11-21T09:13:26;99876.16;;;10.05;74.47
61136;BME280;47021;51.340;12.432;2023-11-21T09:15:57;99875.00;;;10.48;73.40
61136;BME280;47021;51.340;12.432;2023-11-21T09:18:30;99877.19;;;10.53;73.46
61136;BME280;47021;51.340;12.432;2023-11-21T09:20:55;99882.72;;;10.59;73.48
61136;BME280;47021;51.340;12.432;2023-11-21T09:26:06;99887.75;;;9.91;74.92
61136;BME280;47021;51.340;12.432;2023-11-21T09:28:31;99896.19;;;10.64;74.11
61136;BME280;47021;51.340;12.432;2023-11-21T09:30:57;99898.09;;;10.53;72.86
61136;BME280;47021;51.340;12.432;2023-11-21T09:33:23;99891.91;;;10.54;73.50
61136;BME280;47021;51.340;12.432;2023-11-21T09:35:48;99896.19;;;10.64;72.89
61136;BME280;47021;51.340;12.432;2023-11-21T09:38:14;99901.69;;;10.22;74.63
61136;BME280;47021;51.340;12.432;2023-11-21T09:40:45;99897.72;;;10.27;74.55
61136;BME280;47021;51.340;12.432;2023-11-21T09:43:20;99904.09;;;10.14;74.73
61136;BME280;47021;51.340;12.432;2023-11-21T09:45:46;99904.50;;;10.79;72.61
61136;BME280;47021;51.340;12.432;2023-11-21T09:48:19;99901.34;;;10.36;73.53
61136;BME280;47021;51.340;12.432;2023-11-21T09:50:47;99903.53;;;9.89;75.10
61136;BME280;47021;51.340;12.432;2023-11-21T09:53:20;99911.53;;;10.18;74.18
61136;BME280;47021;51.340;12.432;2023-11-21T09:55:57;99917.03;;;9.94;75.16
61136;BME280;47021;51.340;12.432;2023-11-21T09:58:23;99923.94;;;10.05;74.96
61136;BME280;47021;51.340;12.432;2023-11-21T10:00:49;99929.34;;;9.72;75.48
61136;BME280;47021;51.340;12.432;2023-11-21T10:03:22;99932.00;;;9.61;76.02
61136;BME280;47021;51.340;12.432;2023-11-21T10:05:50;99935.31;;;9.63;76.26
61136;BME280;47021;51.340;12.432;2023-11-21T10:08:22;99932.78;;;9.93;74.64
61136;BME280;47021;51.340;12.432;2023-11-21T10:10:54;99940.88;;;9.90;74.69
61136;BME280;47021;51.340;12.432;2023-11-21T10:13:26;99944.13;;;9.82;73.51
61136;BME280;47021;51.340;12.432;2023-11-21T10:18:46;99931.41;;;10.70;71.78
61136;BME280;47021;51.340;12.432;2023-11-21T10:21:19;99937.38;;;10.01;73.13
61136;BME280;47021;51.340;12.432;2023-11-21T10:23:52;99947.72;;;9.91;72.88
61136;BME280;47021;51.340;12.432;2023-11-21T10:26:25;99946.09;;;9.69;74.13
61136;BME280;47021;51.340;12.432;2023-11-21T10:28:58;99955.03;;;9.76;73.55
61136;BME280;47021;51.340;12.432;2023-11-21T10:31:27;99944.94;;;9.62;73.33
61136;BME280;47021;51.340;12.432;2023-11-21T10:33:52;99952.19;;;10.00;72.74
61136;BME280;47021;51.340;12.432;2023-11-21T10:39:01;99947.22;;;10.18;71.87
61136;BME280;47021;51.340;12.432;2023-11-21T10:41:26;99958.31;;;9.89;71.92
61136;BME280;47021;51.340;12.432;2023-11-21T10:43:58;99958.16;;;9.91;72.11
61136;BME280;47021;51.340;12.432;2023-11-21T10:46:24;99947.97;;;9.88;71.96
61136;BME280;47021;51.340;12.432;2023-11-21T10:48:54;99954.34;;;9.95;71.67
61136;BME280;47021;51.340;12.432;2023-11-21T10:51:21;99953.25;;;10.39;70.24
61136;BME280;47021;51.340;12.432;2023-11-21T10:53:48;99956.56;;;10.00;71.13
61136;BME280;47021;51.340;12.432;2023-11-21T10:56:14;99956.47;;;10.01;71.77
61136;BME280;47021;51.340;12.432;2023-11-21T10:58:54;99954.78;;;10.41;70.20
61136;BME280;47021;51.340;12.432;2023-11-21T11:01:19;99964.13;;;9.82;71.98
61136;BME280;47021;51.340;12.432;2023-11-21T11:03:44;99962.44;;;9.71;72.42
61136;BME280;47021;51.340;12.432;2023-11-21T11:06:11;99969.69;;;10.09;71.60
61136;BME280;47021;51.340;12.432;2023-11-21T11:08:37;99970.97;;;10.35;70.64
61136;BME280;47021;51.340;12.432;2023-11-21T11:11:09;99965.34;;;9.99;71.36
61136;BME280;47021;51.340;12.432;2023-11-21T11:13:37;99972.03;;;9.91;72.01
61136;BME280;47021;51.340;12.432;2023-11-21T11:16:02;99963.53;;;10.31;70.88
61136;BME280;47021;51.340;12.432;2023-11-21T11:18:28;99972.28;;;10.30;70.20
61136;BME280;47021;51.340;12.432;2023-11-21T11:31:50;99998.63;;;10.06;71.58
61136;BME280;47021;51.340;12.432;2023-11-21T11:37:05;99998.56;;;9.97;71.84
61136;BME280;47021;51.340;12.432;2023-11-21T11:39:40;100002.16;;;9.64;72.64
61136;BME280;47021;51.340;12.432;2023-11-21T11:42:07;100008.19;;;9.64;73.59
61136;BME280;47021;51.340;12.432;2023-11-21T11:47:13;100010.78;;;9.96;71.67
61136;BME280;47021;51.340;12.432;2023-11-21T11:49:54;100006.19;;;10.09;70.91
61136;BME280;47021;51.340;12.432;2023-11-21T11:54:59;100015.00;;;10.08;71.48
61136;BME280;47021;51.340;12.432;2023-11-21T11:57:25;100017.50;;;9.46;73.33
61136;BME280;47021;51.340;12.432;2023-11-21T12:02:42;100031.50;;;9.34;73.27
61136;BME280;47021;51.340;12.432;2023-11-21T12:05:16;100029.00;;;9.21;73.95
61136;BME280;47021;51.340;12.432;2023-11-21T12:07:52;100037.00;;;8.87;74.65
61136;BME280;47021;51.340;12.432;2023-11-21T12:13:10;100039.00;;;8.83;75.14
61136;BME280;47021;51.340;12.432;2023-11-21T12:15:35;100040.66;;;8.95;75.06
61136;BME280;47021;51.340;12.432;2023-11-21T12:18:01;100043.72;;;9.11;74.82
61136;BME280;47021;51.340;12.432;2023-11-21T12:20:27;100051.31;;;8.92;74.83
61136;BME280;47021;51.340;12.432;2023-11-21T12:22:53;100068.13;;;8.77;75.67
61136;BME280;47021;51.340;12.432;2023-11-21T12:25:20;100067.41;;;8.86;74.95
61136;BME280;47021;51.340;12.432;2023-11-21T12:27:47;100074.59;;;8.72;75.40
61136;BME280;47021;51.340;12.432;2023-11-21T12:30:13;100080.16;;;8.89;74.98
61136;BME280;47021;51.340;12.432;2023-11-21T12:32:47;100091.00;;;8.15;76.19
61136;BME280;47021;51.340;12.432;2023-11-21T12:35:13;100093.94;;;7.87;76.16
61136;BME280;47021;51.340;12.432;2023-11-21T12:37:38;100101.03;;;7.85;75.99
61136;BME280;47021;51.340;12.432;2023-11-21T12:42:51;100100.53;;;8.04;75.74
61136;BME280;47021;51.340;12.432;2023-11-21T12:47:42;100110.22;;;8.02;74.91
61136;BME280;47021;51.340;12.432;2023-11-21T12:50:09;100108.22;;;7.58;76.37
61136;BME280;47021;51.340;12.432;2023-11-21T12:52:35;100111.06;;;7.66;75.79
61136;BME280;47021;51.340;12.432;2023-11-21T12:55:01;100122.34;;;7.90;75.16
61136;BME280;47021;51.340;12.432;2023-11-21T12:57:26;100123.72;;;7.83;75.07
61136;BME280;47021;51.340;12.432;2023-11-21T12:59:58;100123.41;;;7.51;75.22
61136;BME280;47021;51.340;12.432;2023-11-21T13:02:31;100120.47;;;7.56;75.85
61136;BME280;47021;51.340;12.432;2023-11-21T13:04:56;100123.44;;;7.26;75.44
61136;BME280;47021;51.340;12.432;2023-11-21T13:07:23;100124.56;;;7.71;74.31
61136;BME280;47021;51.340;12.432;2023-11-21T13:09:52;100123.78;;;7.81;73.88
61136;BME280;47021;51.340;12.432;2023-11-21T13:12:17;100122.34;;;7.90;73.12
61136;BME280;47021;51.340;12.432;2023-11-21T13:14:42;100125.59;;;7.81;73.52
61136;BME280;47021;51.340;12.432;2023-11-21T13:17:14;100126.31;;;7.83;72.43
61136;BME280;47021;51.340;12.432;2023-11-21T13:19:40;100134.38;;;7.67;72.61
61136;BME280;47021;51.340;12.432;2023-11-21T13:22:05;100130.25;;;7.52;73.10
61136;BME280;47021;51.340;12.432;2023-11-21T13:24:30;100132.28;;;7.96;71.15
61136;BME280;47021;51.340;12.432;2023-11-21T13:26:56;100138.31;;;7.97;71.60
61136;BME280;47021;51.340;12.432;2023-11-21T13:29:23;100128.97;;;8.18;71.50
61136;BME280;47021;51.340;12.432;2023-11-21T13:31:56;100134.69;;;8.69;69.45
61136;BME280;47021;51.340;12.432;2023-11-21T13:34:28;100136.97;;;7.91;71.63
61136;BME280;47021;51.340;12.432;2023-11-21T13:36:53;100142.78;;;8.18;70.73
61136;BME280;47021;51.340;12.432;2023-11-21T13:39:20;100143.06;;;7.79;71.37
61136;BME280;47021;51.340;12.432;2023-11-21T13:41:45;100142.63;;;8.32;70.88
61136;BME280;47021;51.340;12.432;2023-11-21T13:44:23;100147.41;;;8.38;70.20
61136;BME280;47021;51.340;12.432;2023-11-21T13:46:50;100156.31;;;8.58;69.79
61136;BME280;47021;51.340;12.432;2023-11-21T13:49:16;100161.56;;;8.34;70.43
61136;BME280;47021;51.340;12.432;2023-11-21T13:51:48;100163.44;;;8.09;71.04
61136;BME280;47021;51.340;12.432;2023-11-21T13:54:13;100165.97;;;8.21;70.71
61136;BME280;47021;51.340;12.432;2023-11-21T13:56:40;100163.66;;;8.06;70.73
61136;BME280;47021;51.340;12.432;2023-11-21T13:59:07;100162.22;;;8.49;69.94
61136;BME280;47021;51.340;12.432;2023-11-21T14:01:34;100171.22;;;7.85;70.83
61136;BME280;47021;51.340;12.432;2023-11-21T14:04:02;100186.41;;;8.02;70.35
61136;BME280;47021;51.340;12.432;2023-11-21T14:06:28;100174.09;;;8.17;70.65
61136;BME280;47021;51.340;12.432;2023-11-21T14:08:55;100179.34;;;8.40;69.63
61136;BME280;47021;51.340;12.432;2023-11-21T14:11:22;100183.69;;;7.80;70.60
61136;BME280;47021;51.340;12.432;2023-11-21T14:13:48;100184.59;;;8.28;69.53